createdAt,value
2019-03-03T00:01:15.037Z,10.80
2019-03-03T00:03:43.952Z,10.70
2019-03-03T00:06:12.967Z,10.70
2019-03-03T00:08:41.817Z,10.70
2019-03-03T00:11:10.700Z,10.80
2019-03-03T00:13:39.689Z,10.70
2019-03-03T00:16:08.480Z,10.70
2019-03-03T00:18:37.284Z,10.60
2019-03-03T00:21:06.168Z,10.50
2019-03-03T00:23:35.064Z,10.50
2019-03-03T00:26:03.928Z,10.40
2019-03-03T00:28:33.184Z,10.40
2019-03-03T00:31:02.077Z,10.40
2019-03-03T00:33:30.972Z,10.40
2019-03-03T00:35:59.884Z,10.40
2019-03-03T00:38:47.744Z,10.40
2019-03-03T00:41:41.929Z,10.40
2019-03-03T00:44:17.288Z,10.40
2019-03-03T00:47:05.257Z,10.50
2019-03-03T00:50:02.249Z,10.50
2019-03-03T00:52:48.970Z,10.50
2019-03-03T00:55:39.784Z,10.50
2019-03-03T00:58:26.873Z,10.50
2019-03-03T01:01:17.840Z,10.40
2019-03-03T01:04:01.568Z,10.50
2019-03-03T01:06:49.808Z,10.40
2019-03-03T01:09:45.316Z,10.40
2019-03-03T01:12:29.668Z,10.50
2019-03-03T01:15:16.200Z,10.40
2019-03-03T01:18:03.476Z,10.40
2019-03-03T01:21:00.309Z,10.40
2019-03-03T01:23:48.676Z,10.40
2019-03-03T01:26:17.518Z,10.40
2019-03-03T01:28:46.540Z,10.40
2019-03-03T01:31:15.663Z,10.40
2019-03-03T01:33:44.548Z,10.50
2019-03-03T01:36:13.426Z,10.50
2019-03-03T01:38:42.347Z,10.40
2019-03-03T01:41:11.440Z,10.50
2019-03-03T01:43:40.569Z,10.50
2019-03-03T01:46:09.457Z,10.50
2019-03-03T01:48:38.256Z,10.50
2019-03-03T01:51:07.124Z,10.40
2019-03-03T01:53:35.896Z,10.40
2019-03-03T01:56:05.128Z,10.40
2019-03-03T01:58:34.029Z,10.40
2019-03-03T02:01:03.169Z,10.40
2019-03-03T02:03:32.780Z,10.40
2019-03-03T02:06:01.732Z,10.40
2019-03-03T02:08:30.548Z,10.40
2019-03-03T02:10:59.465Z,10.40
2019-03-03T02:13:28.303Z,10.30
2019-03-03T02:15:57.528Z,10.30
2019-03-03T02:18:26.456Z,10.30
2019-03-03T02:20:55.276Z,10.30
2019-03-03T02:23:24.094Z,10.30
2019-03-03T02:25:53.116Z,10.20
2019-03-03T02:28:22.088Z,10.20
2019-03-03T02:30:51.102Z,10.10
2019-03-03T02:33:19.963Z,10.10
2019-03-03T02:35:48.921Z,10.10
2019-03-03T02:38:17.833Z,10.00
2019-03-03T02:40:46.794Z,10.00
2019-03-03T02:43:15.691Z,9.90
2019-03-03T02:45:44.577Z,9.90
2019-03-03T02:48:13.473Z,9.90
2019-03-03T02:50:42.321Z,9.90
2019-03-03T02:53:11.479Z,9.80
2019-03-03T02:55:40.256Z,9.80
2019-03-03T02:58:09.211Z,9.80
2019-03-03T03:00:43.121Z,9.80
2019-03-03T03:03:12.754Z,9.80
2019-03-03T03:06:06.169Z,9.80
2019-03-03T03:08:54.141Z,9.80
2019-03-03T03:11:41.050Z,9.80
2019-03-03T03:14:20.160Z,9.80
2019-03-03T03:17:14.004Z,9.80
2019-03-03T03:19:54.996Z,9.80
2019-03-03T03:22:30.189Z,9.80
2019-03-03T03:25:33.096Z,9.80
2019-03-03T03:28:13.236Z,9.70
2019-03-03T03:30:53.393Z,9.70
2019-03-03T03:33:50.357Z,9.70
2019-03-03T03:36:37.149Z,9.70
2019-03-03T03:39:26.477Z,9.70
2019-03-03T03:42:14.363Z,9.70
2019-03-03T03:45:01.242Z,9.70
2019-03-03T03:47:40.629Z,9.70
2019-03-03T03:50:15.422Z,9.70
2019-03-03T03:53:08.500Z,9.70
2019-03-03T03:55:55.201Z,9.60
2019-03-03T03:58:36.096Z,9.60
2019-03-03T04:01:24.414Z,9.60
2019-03-03T04:04:08.887Z,9.60
2019-03-03T04:06:57.160Z,9.60
2019-03-03T04:09:48.451Z,9.60
2019-03-03T04:12:23.963Z,9.70
2019-03-03T04:15:13.556Z,9.70
2019-03-03T04:17:48.489Z,9.80
2019-03-03T04:20:42.352Z,9.70
2019-03-03T04:23:39.472Z,9.80
2019-03-03T04:26:22.016Z,9.90
2019-03-03T04:28:59.916Z,9.90
2019-03-03T04:31:37.834Z,9.90
2019-03-03T04:34:41.237Z,9.90
2019-03-03T04:37:32.366Z,10.00
2019-03-03T04:40:12.292Z,10.00
2019-03-03T04:42:55.720Z,10.00
2019-03-03T04:45:32.936Z,10.10
2019-03-03T04:48:10.692Z,10.20
2019-03-03T04:51:01.684Z,10.30
2019-03-03T04:53:44.320Z,10.40
2019-03-03T04:56:23.630Z,10.50
2019-03-03T04:58:58.798Z,10.60
2019-03-03T05:01:36.393Z,10.60
2019-03-03T05:04:27.918Z,10.60
2019-03-03T05:07:24.884Z,10.70
2019-03-03T05:10:15.736Z,10.70
2019-03-03T05:12:58.572Z,10.80
2019-03-03T05:15:41.733Z,10.80
2019-03-03T05:18:16.084Z,10.80
2019-03-03T05:20:46.442Z,10.80
2019-03-03T05:23:15.336Z,10.90
2019-03-03T05:25:44.317Z,10.90
2019-03-03T05:28:13.216Z,10.90
2019-03-03T05:30:42.208Z,10.90
2019-03-03T05:33:11.128Z,10.80
2019-03-03T05:35:40.016Z,10.80
2019-03-03T05:38:08.924Z,10.80
2019-03-03T05:40:37.892Z,10.80
2019-03-03T05:43:07.064Z,10.80
2019-03-03T05:45:35.876Z,10.80
2019-03-03T05:48:04.820Z,10.90
2019-03-03T05:50:33.764Z,10.90
2019-03-03T05:53:02.753Z,10.90
2019-03-03T05:55:31.552Z,10.90
2019-03-03T05:58:00.332Z,10.80
2019-03-03T06:00:29.121Z,10.80
2019-03-03T06:02:57.946Z,10.80
2019-03-03T06:05:26.900Z,10.80
2019-03-03T06:07:55.805Z,10.80
2019-03-03T06:10:24.617Z,10.90
2019-03-03T06:12:53.389Z,10.80
2019-03-03T06:15:22.366Z,10.80
2019-03-03T06:17:51.352Z,10.80
2019-03-03T06:20:20.224Z,10.80
2019-03-03T06:22:49.144Z,10.80
2019-03-03T06:25:18.086Z,10.80
2019-03-03T06:27:46.952Z,10.70
2019-03-03T06:30:16.033Z,10.70
2019-03-03T06:32:44.924Z,10.80
2019-03-03T06:35:14.048Z,10.80
2019-03-03T06:37:43.044Z,10.80
2019-03-03T06:40:12.047Z,10.80
2019-03-03T06:42:40.912Z,10.80
2019-03-03T06:45:11.120Z,10.70
2019-03-03T06:47:39.955Z,10.70
2019-03-03T06:50:10.527Z,10.60
2019-03-03T06:52:39.446Z,10.60
2019-03-03T06:55:08.895Z,10.70
2019-03-03T06:57:38.316Z,10.70
2019-03-03T07:00:11.484Z,10.70
2019-03-03T07:02:40.721Z,10.70
2019-03-03T07:05:10.159Z,10.70
2019-03-03T07:07:39.302Z,10.80
2019-03-03T07:10:10.453Z,10.80
2019-03-03T07:12:39.420Z,10.80
2019-03-03T07:15:13.460Z,10.80
2019-03-03T07:17:42.623Z,10.90
2019-03-03T07:20:12.323Z,10.90
2019-03-03T07:22:41.268Z,10.90
2019-03-03T07:25:11.254Z,10.90
2019-03-03T07:27:40.216Z,10.90
2019-03-03T07:30:11.480Z,11.00
2019-03-03T07:33:05.460Z,11.00
2019-03-03T07:35:34.680Z,11.00
2019-03-03T07:38:03.509Z,11.00
2019-03-03T07:40:32.457Z,11.00
2019-03-03T07:43:01.429Z,11.10
2019-03-03T07:45:30.532Z,11.10
2019-03-03T07:47:59.708Z,11.10
2019-03-03T07:50:28.584Z,11.20
2019-03-03T07:52:57.712Z,11.20
2019-03-03T07:55:26.652Z,11.10
2019-03-03T07:57:56.089Z,11.20
2019-03-03T08:00:25.182Z,11.20
2019-03-03T08:02:54.216Z,11.20
2019-03-03T08:05:23.093Z,11.20
2019-03-03T08:07:52.441Z,11.30
2019-03-03T08:10:21.212Z,11.30
2019-03-03T08:12:50.076Z,11.40
2019-03-03T08:15:19.256Z,11.40
2019-03-03T08:17:48.137Z,11.40
2019-03-03T08:20:17.054Z,11.40
2019-03-03T08:22:45.946Z,11.50
2019-03-03T08:25:14.826Z,11.50
2019-03-03T08:27:43.596Z,11.60
2019-03-03T08:30:12.653Z,11.60
2019-03-03T08:32:41.484Z,11.50
2019-03-03T08:35:12.232Z,11.60
2019-03-03T08:37:41.212Z,11.80
2019-03-03T08:40:10.109Z,11.70
2019-03-03T08:42:47.087Z,11.70
2019-03-03T08:45:33.580Z,11.70
2019-03-03T08:48:12.128Z,11.70
2019-03-03T08:50:54.664Z,11.70
2019-03-03T08:53:52.546Z,11.70
2019-03-03T08:56:43.260Z,11.80
2019-03-03T08:59:37.385Z,11.70
2019-03-03T09:02:25.436Z,11.80
2019-03-03T09:05:16.472Z,11.80
2019-03-03T09:08:06.432Z,11.80
2019-03-03T09:10:42.600Z,11.90
2019-03-03T09:13:25.932Z,11.90
2019-03-03T09:16:19.946Z,11.90
2019-03-03T09:19:13.612Z,11.80
2019-03-03T09:21:58.037Z,11.80
2019-03-03T09:24:44.136Z,11.80
2019-03-03T09:27:37.920Z,11.80
2019-03-03T09:30:33.156Z,11.90
2019-03-03T09:33:11.735Z,11.80
2019-03-03T09:35:54.349Z,11.80
2019-03-03T09:38:45.308Z,11.90
2019-03-03T09:41:32.080Z,11.90
2019-03-03T09:44:10.467Z,12.00
2019-03-03T09:46:51.340Z,12.00
2019-03-03T09:49:39.676Z,12.00
2019-03-03T09:52:30.469Z,12.00
2019-03-03T09:55:07.148Z,12.00
2019-03-03T09:57:52.948Z,12.00
2019-03-03T10:00:43.711Z,12.00
2019-03-03T10:03:26.273Z,12.00
2019-03-03T10:06:14.236Z,12.00
2019-03-03T10:08:54.812Z,12.00
2019-03-03T10:11:33.897Z,12.10
2019-03-03T10:14:20.800Z,12.10
2019-03-03T10:17:09.936Z,12.10
2019-03-03T10:19:49.157Z,12.10
2019-03-03T10:22:36.511Z,12.20
2019-03-03T10:25:29.489Z,12.20
2019-03-03T10:28:16.368Z,12.30
2019-03-03T10:31:04.360Z,12.20
2019-03-03T10:34:01.206Z,12.20
2019-03-03T10:36:42.868Z,12.30
2019-03-03T10:39:23.013Z,12.30
2019-03-03T10:42:17.001Z,12.30
2019-03-03T10:44:58.682Z,12.30
2019-03-03T10:47:49.780Z,12.20
2019-03-03T10:50:36.677Z,12.20
2019-03-03T10:53:23.552Z,12.20
2019-03-03T10:56:26.812Z,12.20
2019-03-03T10:59:20.564Z,12.30
2019-03-03T11:02:07.376Z,12.30
2019-03-03T11:04:59.408Z,12.40
2019-03-03T11:07:41.432Z,12.40
2019-03-03T11:10:35.653Z,12.50
2019-03-03T11:13:24.221Z,12.60
2019-03-03T11:16:11.692Z,12.50
2019-03-03T11:19:02.686Z,12.50
2019-03-03T11:21:53.736Z,12.50
2019-03-03T11:24:56.770Z,12.50
2019-03-03T11:27:43.208Z,12.50
2019-03-03T11:30:25.482Z,12.60
2019-03-03T11:33:09.022Z,12.60
2019-03-03T11:35:57.898Z,12.60
2019-03-03T11:38:34.348Z,12.60
2019-03-03T11:41:09.384Z,12.60
2019-03-03T11:43:51.791Z,12.70
2019-03-03T11:46:27.642Z,12.70
2019-03-03T11:49:21.449Z,12.70
2019-03-03T11:52:12.715Z,12.70
2019-03-03T11:54:56.288Z,12.70
2019-03-03T11:57:40.220Z,12.70
2019-03-03T12:00:29.440Z,12.80
2019-03-03T12:03:12.469Z,12.90
2019-03-03T12:05:53.989Z,12.90
2019-03-03T12:08:41.116Z,13.00
2019-03-03T12:11:26.202Z,13.00
2019-03-03T12:14:03.963Z,13.00
2019-03-03T12:17:03.861Z,13.00
2019-03-03T12:19:52.090Z,13.10
2019-03-03T12:22:38.732Z,13.10
2019-03-03T12:25:18.892Z,13.10
2019-03-03T12:28:05.850Z,13.10
2019-03-03T12:30:41.765Z,13.10
2019-03-03T12:33:19.661Z,13.10
2019-03-03T12:36:14.004Z,13.20
2019-03-03T12:38:51.224Z,13.20
2019-03-03T12:41:31.600Z,13.20
2019-03-03T12:44:10.012Z,13.20
2019-03-03T12:47:02.952Z,13.30
2019-03-03T12:49:39.228Z,13.30
2019-03-03T12:52:13.952Z,13.30
2019-03-03T12:55:00.392Z,13.30
2019-03-03T12:57:46.655Z,13.30
2019-03-03T13:00:44.008Z,13.40
2019-03-03T13:03:44.248Z,13.40
2019-03-03T13:06:35.313Z,13.30
2019-03-03T13:09:17.755Z,13.30
2019-03-03T13:12:05.720Z,13.20
2019-03-03T13:14:46.156Z,13.20
2019-03-03T13:17:52.428Z,13.20
2019-03-03T13:20:28.973Z,13.20
2019-03-03T13:23:19.173Z,13.10
2019-03-03T13:26:13.257Z,13.10
2019-03-03T13:28:59.785Z,13.20
2019-03-03T13:31:47.888Z,13.30
2019-03-03T13:34:54.221Z,13.30
2019-03-03T13:37:48.248Z,13.40
2019-03-03T13:40:42.001Z,13.30
2019-03-03T13:43:10.913Z,13.20
2019-03-03T13:45:39.832Z,13.20
2019-03-03T13:48:08.838Z,13.10
2019-03-03T13:50:37.809Z,13.00
2019-03-03T13:53:06.946Z,13.00
2019-03-03T13:55:35.911Z,13.00
2019-03-03T13:58:04.900Z,13.00
2019-03-03T14:00:33.842Z,13.00
2019-03-03T14:03:02.992Z,13.00
2019-03-03T14:05:31.888Z,13.00
2019-03-03T14:08:00.881Z,12.90
2019-03-03T14:10:29.778Z,13.00
2019-03-03T14:12:58.742Z,13.00
2019-03-03T14:15:27.684Z,13.10
2019-03-03T14:17:58.010Z,13.00
2019-03-03T14:20:27.128Z,13.00
2019-03-03T14:22:55.960Z,13.00
2019-03-03T14:25:24.842Z,13.00
2019-03-03T14:27:54.206Z,13.00
2019-03-03T14:30:24.492Z,13.00
2019-03-03T14:32:53.428Z,13.00
2019-03-03T14:35:22.346Z,13.00
2019-03-03T14:37:51.254Z,13.00
2019-03-03T14:40:20.958Z,13.00
2019-03-03T14:42:50.028Z,13.00
2019-03-03T14:45:19.109Z,13.00
2019-03-03T14:47:48.616Z,13.00
2019-03-03T14:50:17.724Z,13.00
2019-03-03T14:52:47.887Z,12.90
2019-03-03T14:55:17.888Z,13.00
2019-03-03T14:57:46.856Z,13.00
2019-03-03T15:00:20.036Z,12.90
2019-03-03T15:02:49.209Z,13.00
2019-03-03T15:05:18.206Z,12.90
2019-03-03T15:07:47.298Z,12.90
2019-03-03T15:10:16.174Z,13.00
2019-03-03T15:12:44.960Z,13.00
2019-03-03T15:15:14.292Z,13.00
2019-03-03T15:17:43.524Z,13.10
2019-03-03T15:20:12.886Z,13.10
2019-03-03T15:22:41.876Z,13.10
2019-03-03T15:25:11.900Z,13.10
2019-03-03T15:27:40.842Z,13.00
2019-03-03T15:30:10.755Z,13.00
2019-03-03T15:32:39.699Z,13.10
2019-03-03T15:35:09.134Z,13.10
2019-03-03T15:37:38.080Z,13.20
2019-03-03T15:40:07.448Z,13.10
2019-03-03T15:42:36.388Z,13.10
2019-03-03T15:45:06.120Z,13.00
2019-03-03T15:47:35.192Z,13.10
2019-03-03T15:50:04.477Z,13.10
2019-03-03T15:52:33.468Z,13.10
2019-03-03T15:55:02.988Z,13.20
2019-03-03T15:57:31.972Z,13.10
2019-03-03T16:00:00.864Z,13.10
2019-03-03T16:02:29.961Z,13.20
2019-03-03T16:04:58.772Z,13.20
2019-03-03T16:07:27.899Z,13.10
2019-03-03T16:09:56.784Z,13.20
2019-03-03T16:12:25.708Z,13.10
2019-03-03T16:14:54.704Z,13.20
2019-03-03T16:17:23.495Z,13.10
2019-03-03T16:19:52.321Z,13.10
2019-03-03T16:22:21.155Z,13.10
2019-03-03T16:24:50.188Z,13.20
2019-03-03T16:27:19.068Z,13.20
2019-03-03T16:29:47.877Z,13.20
2019-03-03T16:32:16.841Z,13.10
2019-03-03T16:34:45.824Z,13.10
2019-03-03T16:37:14.598Z,13.10
2019-03-03T16:39:43.402Z,13.10
2019-03-03T16:42:12.516Z,13.10
2019-03-03T16:44:41.376Z,13.10
2019-03-03T16:47:10.273Z,13.10
2019-03-03T16:49:39.229Z,13.10
2019-03-03T16:52:08.064Z,13.10
2019-03-03T16:54:36.901Z,13.20
2019-03-03T16:57:05.881Z,13.10
2019-03-03T16:59:35.430Z,13.10
2019-03-03T17:02:04.400Z,13.10
2019-03-03T17:04:34.814Z,13.10
2019-03-03T17:07:04.181Z,13.10
2019-03-03T17:09:33.080Z,13.10
2019-03-03T17:12:02.081Z,13.00
2019-03-03T17:14:30.993Z,13.00
2019-03-03T17:16:59.786Z,13.00
2019-03-03T17:19:28.837Z,13.10
2019-03-03T17:21:58.168Z,13.20
2019-03-03T17:24:27.009Z,13.20
2019-03-03T17:26:56.000Z,13.20
2019-03-03T17:29:24.817Z,13.20
2019-03-03T17:31:53.970Z,13.10
2019-03-03T17:34:23.165Z,13.10
2019-03-03T17:36:52.060Z,13.10
2019-03-03T17:39:20.929Z,13.10
2019-03-03T17:41:49.708Z,13.10
2019-03-03T17:44:18.567Z,13.20
2019-03-03T17:46:47.423Z,13.10
2019-03-03T17:49:16.226Z,13.10
2019-03-03T17:51:45.012Z,13.10
2019-03-03T17:54:13.821Z,13.10
2019-03-03T17:56:42.617Z,13.10
2019-03-03T17:59:11.604Z,13.10
2019-03-03T18:01:41.365Z,13.00
2019-03-03T18:04:10.350Z,13.00
2019-03-03T18:06:39.269Z,13.00
2019-03-03T18:09:09.612Z,12.90
2019-03-03T18:11:38.865Z,13.00
2019-03-03T18:14:07.849Z,13.00
2019-03-03T18:16:36.776Z,13.00
2019-03-03T18:19:05.808Z,13.00
2019-03-03T18:21:34.919Z,13.00
2019-03-03T18:24:04.040Z,13.00
2019-03-03T18:26:33.453Z,13.00
2019-03-03T18:29:08.414Z,13.00
2019-03-03T18:31:37.289Z,12.90
2019-03-03T18:34:06.537Z,12.90
2019-03-03T18:36:35.877Z,12.90
2019-03-03T18:39:07.737Z,12.90
2019-03-03T18:41:37.025Z,12.90
2019-03-03T18:44:06.422Z,12.80
2019-03-03T18:46:35.564Z,12.80
2019-03-03T18:49:04.553Z,12.80
2019-03-03T18:51:33.531Z,12.80
2019-03-03T18:54:02.502Z,13.30
2019-03-03T18:56:31.802Z,12.70
2019-03-03T18:59:01.427Z,12.70
2019-03-03T19:01:30.779Z,12.70
2019-03-03T19:03:59.849Z,12.80
2019-03-03T19:06:29.009Z,12.70
2019-03-03T19:08:58.280Z,12.80
2019-03-03T19:11:27.786Z,12.70
2019-03-03T19:13:56.909Z,12.80
2019-03-03T19:16:26.247Z,12.80
2019-03-03T19:18:55.332Z,12.80
2019-03-03T19:21:24.557Z,12.90
2019-03-03T19:23:53.519Z,12.90
2019-03-03T19:26:22.601Z,13.00
2019-03-03T19:28:51.769Z,13.10
2019-03-03T19:31:20.994Z,13.10
2019-03-03T19:33:54.612Z,13.10
2019-03-03T19:36:24.009Z,13.20
2019-03-03T19:38:53.054Z,13.20
2019-03-03T19:41:22.402Z,13.20
2019-03-03T19:43:51.502Z,13.20
2019-03-03T19:46:20.609Z,13.10
2019-03-03T19:48:49.857Z,13.10
2019-03-03T19:51:19.137Z,13.10
2019-03-03T19:53:48.540Z,13.10
2019-03-03T19:56:17.666Z,13.10
2019-03-03T19:58:46.728Z,13.10
2019-03-03T20:01:15.934Z,13.10
2019-03-03T20:03:44.885Z,13.10
2019-03-03T20:06:14.010Z,13.10
2019-03-03T20:08:43.229Z,13.20
2019-03-03T20:11:12.511Z,13.20
2019-03-03T20:13:41.728Z,13.20
2019-03-03T20:16:10.966Z,13.20
2019-03-03T20:18:41.430Z,13.10
2019-03-03T20:21:10.841Z,13.10
2019-03-03T20:23:39.972Z,13.10
2019-03-03T20:26:11.905Z,13.10
2019-03-03T20:28:41.072Z,13.20
2019-03-03T20:31:10.599Z,13.20
2019-03-03T20:33:39.825Z,13.20
2019-03-03T20:36:08.944Z,13.20
2019-03-03T20:38:37.996Z,13.20
2019-03-03T20:41:07.204Z,13.20
2019-03-03T20:43:36.780Z,13.20
2019-03-03T20:46:05.705Z,13.10
2019-03-03T20:48:34.717Z,13.10
2019-03-03T20:51:03.705Z,13.20
2019-03-03T20:53:32.696Z,13.20
2019-03-03T20:56:02.018Z,13.20
2019-03-03T20:58:30.856Z,13.20
2019-03-03T21:01:00.085Z,13.20
2019-03-03T21:03:29.045Z,13.20
2019-03-03T21:05:58.005Z,13.20
2019-03-03T21:08:27.005Z,13.10
2019-03-03T21:10:56.021Z,13.10
2019-03-03T21:13:25.052Z,13.00
2019-03-03T21:15:54.009Z,13.00
2019-03-03T21:18:23.420Z,13.00
2019-03-03T21:20:52.640Z,12.90
2019-03-03T21:23:21.763Z,12.70
2019-03-03T21:25:50.716Z,12.80
2019-03-03T21:28:19.753Z,12.80
2019-03-03T21:30:48.880Z,12.80
2019-03-03T21:33:18.014Z,12.80
2019-03-03T21:35:47.084Z,12.80
2019-03-03T21:38:16.625Z,12.80
2019-03-03T21:40:45.842Z,12.80
2019-03-03T21:43:15.154Z,12.80
2019-03-03T21:45:44.376Z,12.80
2019-03-03T21:48:13.415Z,12.80
2019-03-03T21:50:42.620Z,12.80
2019-03-03T21:53:11.812Z,12.80
2019-03-03T21:55:40.802Z,12.90
2019-03-03T21:58:10.199Z,12.90
2019-03-03T22:00:39.334Z,12.90
2019-03-03T22:03:08.454Z,12.80
2019-03-03T22:05:37.518Z,12.80
2019-03-03T22:08:06.622Z,12.80
2019-03-03T22:10:35.687Z,12.90
2019-03-03T22:13:12.405Z,12.90
2019-03-03T22:15:41.573Z,12.90
2019-03-03T22:18:10.752Z,12.90
2019-03-03T22:20:39.877Z,12.90
2019-03-03T22:23:09.030Z,12.90
2019-03-03T22:25:38.207Z,13.00
2019-03-03T22:28:07.351Z,13.00
2019-03-03T22:30:36.554Z,12.90
2019-03-03T22:33:05.650Z,12.90
2019-03-03T22:35:34.795Z,12.80
2019-03-03T22:38:03.952Z,12.80
2019-03-03T22:40:32.954Z,12.80
2019-03-03T22:43:02.130Z,12.80
2019-03-03T22:45:31.297Z,12.90
2019-03-03T22:48:00.422Z,12.90
2019-03-03T22:50:29.641Z,12.90
2019-03-03T22:52:58.777Z,12.80
2019-03-03T22:55:29.430Z,12.80
2019-03-03T22:57:58.478Z,12.80
2019-03-03T23:00:51.630Z,12.80
2019-03-03T23:03:47.678Z,12.60
2019-03-03T23:06:33.265Z,12.30
2019-03-03T23:09:34.974Z,12.10
2019-03-03T23:12:48.117Z,11.90
2019-03-03T23:15:34.225Z,11.80
2019-03-03T23:18:30.651Z,11.60
2019-03-03T23:21:11.747Z,11.60
2019-03-03T23:23:56.913Z,11.50
2019-03-03T23:26:26.176Z,11.50
2019-03-03T23:28:55.441Z,11.40
2019-03-03T23:31:24.489Z,11.40
2019-03-03T23:33:53.589Z,11.40
2019-03-03T23:36:22.729Z,11.50
2019-03-03T23:38:51.848Z,11.50
2019-03-03T23:41:20.985Z,11.50
2019-03-03T23:43:50.169Z,11.50
2019-03-03T23:46:19.419Z,11.50
2019-03-03T23:48:48.517Z,11.40
2019-03-03T23:51:17.590Z,11.50
2019-03-03T23:53:46.713Z,11.40
2019-03-03T23:56:15.849Z,11.40
2019-03-03T23:58:45.110Z,11.40
